createdAt,value
2023-07-25T00:00:18.712Z,10.5
2023-07-25T00:01:23.486Z,10.9
2023-07-25T00:02:30.398Z,10.7
2023-07-25T00:03:35.092Z,12.9
2023-07-25T00:04:39.836Z,12.9
2023-07-25T00:05:44.746Z,11.8
2023-07-25T00:06:49.520Z,12.4
2023-07-25T00:07:58.378Z,14
2023-07-25T00:09:03.099Z,11.7
2023-07-25T00:10:08.941Z,13.8
2023-07-25T00:11:13.762Z,11.6
2023-07-25T00:12:18.448Z,12.7
2023-07-25T00:13:25.423Z,12.3
2023-07-25T00:14:31.292Z,13.4
2023-07-25T00:15:36.218Z,13.2
2023-07-25T00:16:41.095Z,14.4
2023-07-25T00:17:46.829Z,14.3
2023-07-25T00:18:52.578Z,14.4
2023-07-25T00:19:59.805Z,15.4
2023-07-25T00:21:05.468Z,16.4
2023-07-25T00:22:10.248Z,14.7
2023-07-25T00:23:15.052Z,14.1
2023-07-25T00:24:20.754Z,13.8
2023-07-25T00:25:25.520Z,13.4
2023-07-25T00:26:30.317Z,14
2023-07-25T00:27:35.122Z,14.7
2023-07-25T00:28:39.864Z,13.8
2023-07-25T00:29:49.834Z,15
2023-07-25T00:30:57.229Z,12.6
2023-07-25T00:32:07.241Z,14.6
2023-07-25T00:33:12.086Z,13.6
2023-07-25T00:34:16.901Z,12.4
2023-07-25T00:35:21.676Z,13.7
2023-07-25T00:36:26.422Z,13.6
2023-07-25T00:37:31.206Z,13.8
2023-07-25T00:38:35.987Z,13.1
2023-07-25T00:39:41.875Z,14.9
2023-07-25T00:40:46.634Z,12.2
2023-07-25T00:41:51.406Z,13
2023-07-25T00:42:56.227Z,14
2023-07-25T00:44:01.000Z,11.9
2023-07-25T00:45:05.981Z,16.4
2023-07-25T00:46:11.550Z,13
2023-07-25T00:47:16.319Z,12.7
2023-07-25T00:48:21.058Z,14.3
2023-07-25T00:49:26.096Z,13
2023-07-25T00:50:31.901Z,12.8
2023-07-25T00:51:36.692Z,12.8
2023-07-25T00:52:42.917Z,13.5
2023-07-25T00:53:52.886Z,12
2023-07-25T00:54:58.754Z,12
2023-07-25T00:56:03.510Z,12.7
2023-07-25T00:57:08.274Z,13.7
2023-07-25T00:58:12.973Z,12.9
2023-07-25T00:59:17.740Z,14.1
2023-07-25T01:00:22.508Z,14
2023-07-25T01:01:28.326Z,13
2023-07-25T01:02:34.179Z,11.8
2023-07-25T01:03:39.068Z,15
2023-07-25T01:04:44.570Z,15.1
2023-07-25T01:05:49.799Z,12.4
2023-07-25T01:06:56.123Z,13.4
2023-07-25T01:08:01.954Z,13.6
2023-07-25T01:09:07.828Z,12.9
2023-07-25T01:10:12.706Z,12
2023-07-25T01:11:19.778Z,10.5
2023-07-25T01:12:24.626Z,12.4
2023-07-25T01:13:31.444Z,13.6
2023-07-25T01:14:38.216Z,12.8
2023-07-25T01:15:43.838Z,13.1
2023-07-25T01:16:49.510Z,11.7
2023-07-25T01:17:54.393Z,14.8
2023-07-25T01:18:59.279Z,11.5
2023-07-25T01:20:04.029Z,10.4
2023-07-25T01:21:09.323Z,11.5
2023-07-25T01:22:14.119Z,10.2
2023-07-25T01:23:18.850Z,11.2
2023-07-25T01:24:23.736Z,11.8
2023-07-25T01:25:28.469Z,11.9
2023-07-25T01:26:33.270Z,11.7
2023-07-25T01:27:39.951Z,14.1
2023-07-25T01:28:44.693Z,14.1
2023-07-25T01:29:50.543Z,13.7
2023-07-25T01:30:55.350Z,12.2
2023-07-25T01:32:01.208Z,14.5
2023-07-25T01:33:08.411Z,13.2
2023-07-25T01:34:14.559Z,14.8
2023-07-25T01:35:20.429Z,12.2
2023-07-25T01:36:25.242Z,13.2
2023-07-25T01:37:31.102Z,14.6
2023-07-25T01:38:35.872Z,13.8
2023-07-25T01:39:41.664Z,12.6
2023-07-25T01:40:46.379Z,16.7
2023-07-25T01:41:52.108Z,11.4
2023-07-25T01:42:56.880Z,12.9
2023-07-25T01:44:02.711Z,12.8
2023-07-25T01:45:07.566Z,13
2023-07-25T01:46:12.770Z,12.7
2023-07-25T01:47:17.477Z,12.9
2023-07-25T01:48:22.236Z,16.1
2023-07-25T01:49:26.999Z,13.8
2023-07-25T01:50:33.108Z,11.8
2023-07-25T01:51:37.888Z,11.7
2023-07-25T01:52:42.623Z,16.3
2023-07-25T01:53:48.444Z,13.7
2023-07-25T01:54:53.206Z,11.9
2023-07-25T01:55:58.001Z,13.7
2023-07-25T01:57:02.803Z,15.2
2023-07-25T01:58:07.796Z,12.5
2023-07-25T01:59:13.605Z,12.3
2023-07-25T02:00:18.566Z,14.2
2023-07-25T02:01:23.643Z,12.4
2023-07-25T02:02:29.493Z,12.5
2023-07-25T02:03:34.291Z,12.3
2023-07-25T02:04:39.056Z,12.9
2023-07-25T02:05:43.792Z,14.9
2023-07-25T02:06:49.686Z,14.3
2023-07-25T02:07:54.698Z,11.7
2023-07-25T02:09:00.502Z,12.2
2023-07-25T02:10:05.283Z,14.5
2023-07-25T02:11:10.427Z,13.1
2023-07-25T02:12:15.219Z,13
2023-07-25T02:13:20.019Z,13.3
2023-07-25T02:14:24.777Z,12.4
2023-07-25T02:15:30.669Z,15.2
2023-07-25T02:16:36.574Z,13.7
2023-07-25T02:17:41.389Z,13.6
2023-07-25T02:18:46.103Z,12.8
2023-07-25T02:19:51.281Z,13.4
2023-07-25T02:20:56.133Z,13.8
2023-07-25T02:22:00.915Z,13.2
2023-07-25T02:23:05.678Z,11.9
2023-07-25T02:24:10.584Z,13.9
2023-07-25T02:25:15.347Z,12.4
2023-07-25T02:26:20.091Z,11.2
2023-07-25T02:27:27.622Z,11.1
2023-07-25T02:28:32.436Z,13
2023-07-25T02:29:37.205Z,12.1
2023-07-25T02:30:43.817Z,12.7
2023-07-25T02:31:48.604Z,13.3
2023-07-25T02:32:53.363Z,11.4
2023-07-25T02:33:58.050Z,11.5
2023-07-25T02:35:04.073Z,11.6
2023-07-25T02:36:08.982Z,11.6
2023-07-25T02:37:13.734Z,10.6
2023-07-25T02:38:20.597Z,11.5
2023-07-25T02:39:25.324Z,11.8
2023-07-25T02:40:30.045Z,10.8
2023-07-25T02:41:34.898Z,11.8
2023-07-25T02:42:39.647Z,18.7
2023-07-25T02:43:44.455Z,11.5
2023-07-25T02:44:49.266Z,11.7
2023-07-25T02:45:55.205Z,12.3
2023-07-25T02:47:00.823Z,12.3
2023-07-25T02:48:05.744Z,12.4
2023-07-25T02:49:10.511Z,12.5
2023-07-25T02:50:15.273Z,11.3
2023-07-25T02:51:22.522Z,11.6
2023-07-25T02:52:28.324Z,12.9
2023-07-25T02:53:33.198Z,10.1
2023-07-25T02:54:37.949Z,10.6
2023-07-25T02:55:43.085Z,10.9
2023-07-25T02:56:49.063Z,13.9
2023-07-25T02:57:54.867Z,11.7
2023-07-25T02:58:59.688Z,10.3
2023-07-25T03:00:05.530Z,9.1
2023-07-25T03:01:10.742Z,10.6
2023-07-25T03:02:15.585Z,12.9
2023-07-25T03:03:20.323Z,11.6
2023-07-25T03:04:26.208Z,9.9
2023-07-25T03:05:30.944Z,12.1
2023-07-25T03:06:35.719Z,11.7
2023-07-25T03:07:41.586Z,13.8
2023-07-25T03:08:48.565Z,14.5
2023-07-25T03:09:54.483Z,10.1
2023-07-25T03:11:00.387Z,11.7
2023-07-25T03:12:05.211Z,11.4
2023-07-25T03:13:10.057Z,13
2023-07-25T03:14:14.876Z,13.4
2023-07-25T03:15:19.647Z,13
2023-07-25T03:16:24.531Z,10.7
2023-07-25T03:17:29.155Z,12
2023-07-25T03:18:33.919Z,12.6
2023-07-25T03:19:40.103Z,11.5
2023-07-25T03:20:45.006Z,13.1
2023-07-25T03:21:49.876Z,12.9
2023-07-25T03:22:54.583Z,11.2
2023-07-25T03:23:59.348Z,12
2023-07-25T03:25:04.074Z,12.3
2023-07-25T03:26:09.055Z,10
2023-07-25T03:27:13.832Z,11.3
2023-07-25T03:28:18.619Z,11.9
2023-07-25T03:29:24.286Z,12
2023-07-25T03:30:29.123Z,11.1
2023-07-25T03:31:35.911Z,10.6
2023-07-25T03:32:41.689Z,12.8
2023-07-25T03:33:46.443Z,12
2023-07-25T03:34:52.961Z,11.6
2023-07-25T03:35:58.113Z,11.5
2023-07-25T03:37:03.801Z,11.8
2023-07-25T03:38:09.808Z,14
2023-07-25T03:39:14.531Z,13.4
2023-07-25T03:40:19.279Z,13.9
2023-07-25T03:41:24.240Z,13.1
2023-07-25T03:42:30.395Z,15.2
2023-07-25T03:43:36.196Z,14.9
2023-07-25T03:44:40.945Z,14.3
2023-07-25T03:45:45.667Z,14
2023-07-25T03:46:50.581Z,14.5
2023-07-25T03:47:56.622Z,14
2023-07-25T03:49:02.716Z,13.8
2023-07-25T03:50:07.813Z,12.4
2023-07-25T03:51:13.839Z,12.2
2023-07-25T03:52:20.756Z,12.5
2023-07-25T03:53:25.858Z,13.3
2023-07-25T03:54:30.730Z,13.1
2023-07-25T03:55:36.564Z,13.3
2023-07-25T03:56:42.979Z,13.5
2023-07-25T03:57:47.889Z,14.1
2023-07-25T03:58:52.664Z,12.9
2023-07-25T03:59:57.496Z,12.9
2023-07-25T04:01:03.399Z,13.5
2023-07-25T04:02:08.156Z,12
2023-07-25T04:03:15.915Z,13.2
2023-07-25T04:04:19.672Z,13.3
2023-07-25T04:05:25.430Z,14.5
2023-07-25T04:06:30.467Z,13
2023-07-25T04:07:36.318Z,14.3
2023-07-25T04:08:41.283Z,11.3
2023-07-25T04:09:46.130Z,12.5
2023-07-25T04:10:50.991Z,12.6
2023-07-25T04:11:55.909Z,14.1
2023-07-25T04:13:00.779Z,15.8
2023-07-25T04:14:05.594Z,12.7
2023-07-25T04:15:10.360Z,12.4
2023-07-25T04:16:16.126Z,13
2023-07-25T04:17:20.842Z,13.5
2023-07-25T04:18:25.888Z,12.8
2023-07-25T04:19:31.360Z,12.1
2023-07-25T04:20:37.369Z,13.3
2023-07-25T04:21:42.182Z,12.1
2023-07-25T04:22:49.141Z,11.2
2023-07-25T04:23:54.246Z,11.6
2023-07-25T04:24:59.051Z,11.9
2023-07-25T04:26:03.887Z,12.1
2023-07-25T04:27:08.704Z,12.7
2023-07-25T04:28:14.019Z,11.3
2023-07-25T04:29:19.012Z,11.1
2023-07-25T04:30:24.934Z,10.5
2023-07-25T04:31:29.902Z,12.2
2023-07-25T04:32:37.770Z,11.8
2023-07-25T04:33:42.625Z,11.8
2023-07-25T04:34:47.493Z,12.8
2023-07-25T04:35:53.017Z,13
2023-07-25T04:36:57.826Z,14
2023-07-25T04:38:02.668Z,13.6
2023-07-25T04:39:07.414Z,13.9
2023-07-25T04:40:12.243Z,14.3
2023-07-25T04:41:17.074Z,13.9
2023-07-25T04:42:23.242Z,14.1
2023-07-25T04:43:28.021Z,13.4
2023-07-25T04:44:35.533Z,14
2023-07-25T04:45:40.402Z,13.6
2023-07-25T04:46:46.123Z,12.1
2023-07-25T04:47:50.939Z,12.8
2023-07-25T04:48:55.806Z,13.3
2023-07-25T04:50:01.628Z,12
2023-07-25T04:51:07.499Z,16.7
2023-07-25T04:52:12.294Z,13.7
2023-07-25T04:53:17.125Z,12.9
2023-07-25T04:54:21.897Z,12
2023-07-25T04:55:27.819Z,13.3
2023-07-25T04:56:32.936Z,12.4
2023-07-25T04:57:37.695Z,13.3
2023-07-25T04:58:42.420Z,13
2023-07-25T04:59:47.260Z,13
2023-07-25T05:00:53.201Z,12.4
2023-07-25T05:01:57.952Z,15.9
2023-07-25T05:03:02.815Z,13.5
2023-07-25T05:04:07.510Z,14.1
2023-07-25T05:05:12.271Z,13.1
2023-07-25T05:06:17.138Z,14.6
2023-07-25T05:07:21.855Z,12.6
2023-07-25T05:08:26.796Z,12.5
2023-07-25T05:09:31.609Z,12.7
2023-07-25T05:10:36.408Z,12.5
2023-07-25T05:11:43.127Z,14
2023-07-25T05:12:49.183Z,12.1
2023-07-25T05:13:54.920Z,14.6
2023-07-25T05:14:59.700Z,13.6
2023-07-25T05:16:05.887Z,14.5
2023-07-25T05:17:10.544Z,12.8
2023-07-25T05:18:16.300Z,15.1
2023-07-25T05:19:21.376Z,12.7
2023-07-25T05:20:26.177Z,14.5
2023-07-25T05:21:31.206Z,13.8
2023-07-25T05:22:35.768Z,16.7
2023-07-25T05:23:41.552Z,12.5
2023-07-25T05:24:46.294Z,12.8
2023-07-25T05:25:51.444Z,13.3
2023-07-25T05:26:58.402Z,11.9
2023-07-25T05:28:01.211Z,13.3
2023-07-25T05:29:08.494Z,11.2
2023-07-25T05:30:13.370Z,12.3
2023-07-25T05:31:18.895Z,11.3
2023-07-25T05:32:24.507Z,13.5
2023-07-25T05:33:29.318Z,11.9
2023-07-25T05:34:35.223Z,12.8
2023-07-25T05:35:40.027Z,13.2
2023-07-25T05:36:46.352Z,12.5
2023-07-25T05:37:52.254Z,11.7
2023-07-25T05:38:58.061Z,12.6
2023-07-25T05:40:04.007Z,12.2
2023-07-25T05:41:09.018Z,12.3
2023-07-25T05:42:15.213Z,12.9
2023-07-25T05:43:21.070Z,11.4
2023-07-25T05:44:25.989Z,10
2023-07-25T05:45:30.859Z,11.6
2023-07-25T05:46:35.923Z,12.1
2023-07-25T05:47:40.706Z,10
2023-07-25T05:48:45.422Z,12.2
2023-07-25T05:49:52.414Z,9.9
2023-07-25T05:50:57.205Z,10.2
2023-07-25T05:52:01.963Z,11.6
2023-07-25T05:53:06.981Z,12.1
2023-07-25T05:54:11.764Z,11.9
2023-07-25T05:55:16.560Z,8.9
2023-07-25T05:56:21.693Z,9.6
2023-07-25T05:57:26.569Z,10.9
2023-07-25T05:58:31.407Z,10.1
2023-07-25T05:59:37.732Z,9.9
2023-07-25T06:00:42.609Z,9.3
2023-07-25T06:01:48.574Z,8.3
2023-07-25T06:02:54.448Z,9.7
2023-07-25T06:03:59.369Z,7.9
2023-07-25T06:05:05.351Z,8.1
2023-07-25T06:06:11.527Z,7.1
2023-07-25T06:07:16.272Z,6.7
2023-07-25T06:08:22.225Z,8.8
2023-07-25T06:09:27.140Z,7.9
2023-07-25T06:10:32.494Z,6
2023-07-25T06:11:39.441Z,8.9
2023-07-25T06:12:44.237Z,6.7
2023-07-25T06:13:50.164Z,10.2
2023-07-25T06:14:55.144Z,6.9
2023-07-25T06:16:01.237Z,5.7
2023-07-25T06:17:06.078Z,7.1
2023-07-25T06:18:10.820Z,7.3
2023-07-25T06:19:15.617Z,6.8
2023-07-25T06:20:20.452Z,6.9
2023-07-25T06:21:25.203Z,8.9
2023-07-25T06:22:30.007Z,6.7
2023-07-25T06:23:34.798Z,8.5
2023-07-25T06:24:39.699Z,7.3
2023-07-25T06:25:44.904Z,8.1
2023-07-25T06:26:49.830Z,6.7
2023-07-25T06:27:54.609Z,5.4
2023-07-25T06:28:59.479Z,6.6
2023-07-25T06:30:04.246Z,7
2023-07-25T06:31:09.542Z,6.5
2023-07-25T06:32:14.466Z,6.2
2023-07-25T06:33:19.183Z,7.5
2023-07-25T06:34:23.997Z,6.8
2023-07-25T06:35:28.982Z,6.8
2023-07-25T06:36:33.755Z,7.6
2023-07-25T06:37:38.726Z,7.4
2023-07-25T06:38:43.780Z,7.6
2023-07-25T06:39:48.508Z,6
2023-07-25T06:40:53.262Z,5.9
2023-07-25T06:41:58.065Z,7.1
2023-07-25T06:43:03.082Z,7.6
2023-07-25T06:44:07.804Z,7.2
2023-07-25T06:45:12.532Z,7.1
2023-07-25T06:46:17.375Z,7.2
2023-07-25T06:47:22.251Z,8
2023-07-25T06:48:27.031Z,7.6
2023-07-25T06:49:33.844Z,6.8
2023-07-25T06:50:38.646Z,7.9
2023-07-25T06:51:43.445Z,7.4
2023-07-25T06:52:48.163Z,8.5
2023-07-25T06:53:54.073Z,8.1
2023-07-25T06:55:01.490Z,6.3
2023-07-25T06:56:07.413Z,7.7
2023-07-25T06:57:12.461Z,6.8
2023-07-25T06:58:17.362Z,7.4
2023-07-25T06:59:23.584Z,7.5
2023-07-25T07:00:28.335Z,7.4
2023-07-25T07:01:33.490Z,7
2023-07-25T07:02:38.185Z,7.7
2023-07-25T07:03:42.919Z,6.9
2023-07-25T07:04:47.804Z,7.9
2023-07-25T07:05:53.494Z,6.6
2023-07-25T07:06:58.449Z,6.7
2023-07-25T07:08:10.439Z,6.1
2023-07-25T07:09:16.374Z,9
2023-07-25T07:10:21.129Z,6.7
2023-07-25T07:11:26.405Z,8.2
2023-07-25T07:12:31.232Z,8.1
2023-07-25T07:13:35.988Z,5.1
2023-07-25T07:14:40.780Z,5.9
2023-07-25T07:15:45.621Z,7.2
2023-07-25T07:16:50.396Z,8.9
2023-07-25T07:17:55.261Z,7.2
2023-07-25T07:19:00.971Z,6.8
2023-07-25T07:20:06.831Z,6.8
2023-07-25T07:21:11.773Z,6.2
2023-07-25T07:22:16.678Z,7.3
2023-07-25T07:23:21.542Z,5.7
2023-07-25T07:24:27.611Z,7.2
2023-07-25T07:25:32.633Z,6.7
2023-07-25T07:26:37.472Z,9.5
2023-07-25T07:27:42.281Z,6.9
2023-07-25T07:28:47.125Z,7.2
2023-07-25T07:29:51.931Z,6.8
2023-07-25T07:30:57.554Z,8.1
2023-07-25T07:32:02.657Z,7.3
2023-07-25T07:33:07.774Z,6.8
2023-07-25T07:34:12.778Z,6.4
2023-07-25T07:35:17.898Z,6.5
2023-07-25T07:36:22.741Z,7.3
2023-07-25T07:37:27.669Z,6.9
2023-07-25T07:38:33.549Z,6.4
2023-07-25T07:39:38.305Z,6.2
2023-07-25T07:40:43.176Z,6
2023-07-25T07:41:48.005Z,8.6
2023-07-25T07:42:52.859Z,6.9
2023-07-25T07:43:58.742Z,8.3
2023-07-25T07:45:06.222Z,6.3
2023-07-25T07:46:11.535Z,5.5
2023-07-25T07:47:17.560Z,7.9
2023-07-25T07:48:22.620Z,7.4
2023-07-25T07:49:28.417Z,7.1
2023-07-25T07:50:33.172Z,6.9
2023-07-25T07:51:40.170Z,7.2
2023-07-25T07:52:46.330Z,7
2023-07-25T07:53:52.129Z,6.2
2023-07-25T07:54:58.044Z,7.2
2023-07-25T07:56:03.069Z,6.2
2023-07-25T07:57:07.891Z,8.7
2023-07-25T07:58:13.006Z,7.4
2023-07-25T07:59:17.854Z,7.1
2023-07-25T08:00:26.228Z,7
2023-07-25T08:01:31.553Z,6.5
2023-07-25T08:02:37.191Z,6.3
2023-07-25T08:03:42.457Z,7.7
2023-07-25T08:04:47.119Z,6.1
2023-07-25T08:05:51.924Z,7.1
2023-07-25T08:07:00.511Z,6.5
2023-07-25T08:08:05.332Z,6.1
2023-07-25T08:09:10.412Z,7.2
2023-07-25T08:10:15.173Z,5.6
2023-07-25T08:11:21.148Z,7.3
2023-07-25T08:12:25.919Z,6.3
2023-07-25T08:13:30.686Z,7.7
2023-07-25T08:14:35.682Z,6.6
2023-07-25T08:15:40.479Z,6.7
2023-07-25T08:16:45.245Z,6.5
2023-07-25T08:17:51.860Z,6.6
2023-07-25T08:18:56.786Z,6.3
2023-07-25T08:20:01.519Z,8.5
2023-07-25T08:21:06.456Z,7.3
2023-07-25T08:22:11.514Z,6.2
2023-07-25T08:23:17.620Z,7
2023-07-25T08:24:23.032Z,5.6
2023-07-25T08:25:27.843Z,8.2
2023-07-25T08:26:32.614Z,7.1
2023-07-25T08:27:38.445Z,5.3
2023-07-25T08:28:43.240Z,6.9
2023-07-25T08:29:49.210Z,6.2
2023-07-25T08:30:55.154Z,5.9
2023-07-25T08:32:02.748Z,6
2023-07-25T08:33:09.379Z,6.8
2023-07-25T08:34:14.147Z,6.1
2023-07-25T08:35:21.690Z,6
2023-07-25T08:36:27.745Z,6.1
2023-07-25T08:37:32.921Z,8.3
2023-07-25T08:38:38.706Z,7.3
2023-07-25T08:39:43.477Z,8
2023-07-25T08:40:48.321Z,6.2
2023-07-25T08:41:53.400Z,6.6
2023-07-25T08:42:59.384Z,5.7
2023-07-25T08:44:06.965Z,7.7
2023-07-25T08:45:11.790Z,7.1
2023-07-25T08:46:16.605Z,7.5
2023-07-25T08:47:21.320Z,6.7
2023-07-25T08:48:28.063Z,7.3
2023-07-25T08:49:30.944Z,6.8
2023-07-25T08:50:36.835Z,6.7
2023-07-25T08:51:42.679Z,5.5
2023-07-25T08:52:48.421Z,6.5
2023-07-25T08:53:53.167Z,5.3
2023-07-25T08:55:08.207Z,5.6
2023-07-25T08:56:14.061Z,5.7
2023-07-25T08:57:18.824Z,5.2
2023-07-25T08:58:24.852Z,4.9
2023-07-25T08:59:29.752Z,5.4
2023-07-25T09:00:35.643Z,6.4
2023-07-25T09:01:40.459Z,6
2023-07-25T09:02:46.034Z,7.5
2023-07-25T09:03:52.003Z,4.6
2023-07-25T09:04:56.735Z,6.3
2023-07-25T09:06:02.854Z,5
2023-07-25T09:07:07.791Z,6.3
2023-07-25T09:08:13.874Z,7.9
2023-07-25T09:09:19.033Z,5.8
2023-07-25T09:10:24.806Z,5.5
2023-07-25T09:11:33.835Z,4.9
2023-07-25T09:12:38.312Z,4.8
2023-07-25T09:13:43.088Z,5.5
2023-07-25T09:14:49.268Z,4.8
2023-07-25T09:15:54.044Z,5.2
2023-07-25T09:16:59.904Z,7.7
2023-07-25T09:18:04.965Z,6
2023-07-25T09:19:09.948Z,5.9
2023-07-25T09:20:14.739Z,5.2
2023-07-25T09:21:19.568Z,5.7
2023-07-25T09:22:25.323Z,5.6
2023-07-25T09:23:30.309Z,5.1
2023-07-25T09:24:35.136Z,5.2
2023-07-25T09:25:41.180Z,5.1
2023-07-25T09:26:47.120Z,4.9
2023-07-25T09:27:55.863Z,6.2
2023-07-25T09:29:01.417Z,5.8
2023-07-25T09:30:06.407Z,6.8
2023-07-25T09:31:15.470Z,5.5
2023-07-25T09:32:21.701Z,6.5
2023-07-25T09:33:29.124Z,6.4
2023-07-25T09:34:35.160Z,5.5
2023-07-25T09:35:38.817Z,4.8
2023-07-25T09:36:43.574Z,5.5
2023-07-25T09:37:48.350Z,5.4
2023-07-25T09:38:58.267Z,5.8
2023-07-25T09:40:03.090Z,6.8
2023-07-25T09:41:14.355Z,6.2
2023-07-25T09:42:19.121Z,4.9
2023-07-25T09:43:25.032Z,4.7
2023-07-25T09:44:29.818Z,5.4
2023-07-25T09:45:37.455Z,5.9
2023-07-25T09:46:43.103Z,4.6
2023-07-25T09:47:58.637Z,5.6
2023-07-25T09:49:03.422Z,5.5
2023-07-25T09:50:09.244Z,4.8
2023-07-25T09:51:15.450Z,5.8
2023-07-25T09:52:19.902Z,5.8
2023-07-25T09:53:26.780Z,5.4
2023-07-25T09:54:31.577Z,4.6
2023-07-25T09:55:36.340Z,6.4
2023-07-25T09:56:41.124Z,5.2
2023-07-25T09:57:49.223Z,6.1
2023-07-25T10:00:02.986Z,5.8
2023-07-25T10:01:08.068Z,5
2023-07-25T10:02:14.017Z,6.3
2023-07-25T10:03:18.937Z,5
2023-07-25T10:04:23.696Z,4.7
2023-07-25T10:05:29.731Z,5.2
2023-07-25T10:06:35.617Z,4.5
2023-07-25T10:07:40.904Z,4.5
2023-07-25T10:08:47.935Z,6.1
2023-07-25T10:09:52.769Z,6.1
2023-07-25T10:10:58.730Z,5.7
2023-07-25T10:12:04.586Z,4.8
2023-07-25T10:13:10.742Z,5.3
2023-07-25T10:14:15.576Z,6.3
2023-07-25T10:15:20.369Z,5.9
2023-07-25T10:16:25.144Z,5.5
2023-07-25T10:17:31.132Z,5
2023-07-25T10:18:36.256Z,5.8
2023-07-25T10:19:41.114Z,5
2023-07-25T10:20:53.747Z,5
2023-07-25T10:21:59.511Z,5.8
2023-07-25T10:23:04.565Z,5.7
2023-07-25T10:24:09.300Z,5.1
2023-07-25T10:25:15.095Z,5.2
2023-07-25T10:26:25.096Z,5.4
2023-07-25T10:27:30.183Z,4.3
2023-07-25T10:28:36.092Z,5.1
2023-07-25T10:29:40.827Z,5.2
2023-07-25T10:30:49.390Z,4.8
2023-07-25T10:31:54.175Z,5
2023-07-25T10:32:59.098Z,4.8
2023-07-25T10:34:06.025Z,6.8
2023-07-25T10:35:10.751Z,7.2
2023-07-25T10:36:15.491Z,5.4
2023-07-25T10:37:27.576Z,5.8
2023-07-25T10:38:33.190Z,3.9
2023-07-25T10:39:40.861Z,4.8
2023-07-25T10:40:45.622Z,5.1
2023-07-25T10:41:53.854Z,5.5
2023-07-25T10:43:06.280Z,5
2023-07-25T10:44:04.394Z,5.2
2023-07-25T10:45:09.146Z,4.5
2023-07-25T10:46:24.224Z,4.9
2023-07-25T10:47:32.369Z,4.5
2023-07-25T10:48:45.324Z,4.9
2023-07-25T10:49:53.022Z,4.1
2023-07-25T10:50:58.128Z,4.7
2023-07-25T10:52:03.098Z,5
2023-07-25T10:53:08.151Z,5.3
2023-07-25T10:54:20.937Z,4.8
2023-07-25T10:55:25.683Z,5.5
2023-07-25T10:56:30.487Z,6.1
2023-07-25T10:57:35.297Z,6
2023-07-25T10:58:40.110Z,5.4
2023-07-25T10:59:54.965Z,8
2023-07-25T11:00:59.788Z,9.7
2023-07-25T11:02:04.771Z,7.9
2023-07-25T11:03:09.575Z,10.3
2023-07-25T11:04:24.756Z,9
2023-07-25T11:05:34.666Z,8.3
2023-07-25T11:06:40.847Z,8.5
2023-07-25T11:07:45.644Z,11.3
2023-07-25T11:08:54.690Z,9
2023-07-25T11:09:59.523Z,9.8
2023-07-25T11:11:05.410Z,11.2
2023-07-25T11:12:12.978Z,9.1
2023-07-25T11:13:17.836Z,10.5
2023-07-25T11:14:22.722Z,9
2023-07-25T11:15:45.496Z,7.6
2023-07-25T11:16:35.751Z,8.2
2023-07-25T11:17:41.068Z,6.8
2023-07-25T11:18:46.956Z,5.9
2023-07-25T11:19:52.116Z,6.4
2023-07-25T11:20:56.890Z,5.5
2023-07-25T11:22:04.829Z,4.5
2023-07-25T11:23:13.399Z,4.9
2023-07-25T11:24:18.238Z,5.1
2023-07-25T11:25:25.954Z,4.5
2023-07-25T11:26:30.854Z,4.7
2023-07-25T11:27:35.728Z,5.5
2023-07-25T11:28:45.756Z,6.1
2023-07-25T11:29:51.573Z,5.6
2023-07-25T11:30:57.432Z,5.2
2023-07-25T11:32:02.842Z,5
2023-07-25T11:33:07.353Z,7.8
2023-07-25T11:34:12.290Z,7.1
2023-07-25T11:35:17.225Z,5.2
2023-07-25T11:36:23.448Z,5.4
2023-07-25T11:37:28.289Z,4.5
2023-07-25T11:38:33.127Z,5.2
2023-07-25T11:39:39.249Z,5.5
2023-07-25T11:40:45.160Z,5.6
2023-07-25T11:41:56.860Z,5.2
2023-07-25T11:43:02.641Z,7.9
2023-07-25T11:44:07.402Z,6.5
2023-07-25T11:45:13.301Z,5.6
2023-07-25T11:46:18.379Z,7.4
2023-07-25T11:48:58.413Z,9.5
2023-07-25T11:50:16.092Z,5.8
2023-07-25T11:51:08.797Z,6.6
2023-07-25T11:52:13.668Z,6.8
2023-07-25T11:53:20.751Z,5.1
2023-07-25T11:54:25.644Z,6.3
2023-07-25T11:55:30.560Z,5.7
2023-07-25T11:56:35.396Z,6.2
2023-07-25T11:57:42.238Z,6.4
2023-07-25T11:58:47.321Z,5.5
2023-07-25T11:59:55.153Z,5.4
2023-07-25T12:01:00.094Z,5.2
2023-07-25T12:02:08.338Z,6.7
2023-07-25T12:03:13.369Z,5.4
2023-07-25T12:04:26.688Z,6.1
2023-07-25T12:05:32.761Z,7
2023-07-25T12:06:37.796Z,6
2023-07-25T12:07:42.811Z,6.6
2023-07-25T12:08:50.973Z,5.2
2023-07-25T12:09:56.017Z,4.3
2023-07-25T12:11:02.419Z,4.5
2023-07-25T12:12:10.488Z,4.7
2023-07-25T12:13:16.075Z,7.7
2023-07-25T12:14:21.050Z,5.4
2023-07-25T12:15:26.609Z,5.9
2023-07-25T12:16:42.052Z,5.6
2023-07-25T12:17:47.251Z,4.1
2023-07-25T12:18:52.136Z,4.2
2023-07-25T12:19:58.350Z,5.7
2023-07-25T12:21:03.377Z,5.4
2023-07-25T12:22:08.352Z,5.1
2023-07-25T12:23:13.377Z,6.3
2023-07-25T12:24:18.454Z,5.5
2023-07-25T12:25:23.633Z,5.1
2023-07-25T12:26:29.001Z,4.4
2023-07-25T12:27:39.178Z,5.6
2023-07-25T12:28:52.111Z,6.5
2023-07-25T12:29:57.111Z,8.5
2023-07-25T12:31:02.080Z,5.3
2023-07-25T12:32:07.107Z,5.3
2023-07-25T12:33:13.194Z,4.8
2023-07-25T12:34:18.191Z,4.3
2023-07-25T12:35:24.212Z,5.4
2023-07-25T12:36:30.597Z,6.4
2023-07-25T12:37:35.675Z,4.7
2023-07-25T12:38:40.703Z,4.9
2023-07-25T12:39:45.889Z,6.5
2023-07-25T12:40:52.242Z,4.1
2023-07-25T12:41:57.422Z,5.4
2023-07-25T12:43:02.545Z,7.2
2023-07-25T12:44:08.925Z,5.5
2023-07-25T12:45:14.116Z,7.1
2023-07-25T12:46:20.345Z,6.7
2023-07-25T12:47:25.359Z,6.5
2023-07-25T12:48:30.379Z,7.7
2023-07-25T12:49:36.497Z,7.2
2023-07-25T12:50:41.470Z,5.9
2023-07-25T12:51:46.640Z,6
2023-07-25T12:52:51.663Z,6.1
2023-07-25T12:53:57.041Z,5.7
2023-07-25T12:55:01.711Z,5.8
2023-07-25T12:56:06.841Z,5.4
2023-07-25T12:57:13.200Z,5.8
2023-07-25T12:58:18.161Z,4.9
2023-07-25T12:59:23.193Z,7.2
2023-07-25T13:00:30.639Z,5.5
2023-07-25T13:01:35.887Z,5.4
2023-07-25T13:02:41.008Z,5.8
2023-07-25T13:03:46.094Z,5.1
2023-07-25T13:04:50.958Z,5
2023-07-25T13:05:55.989Z,4.9
2023-07-25T13:07:01.414Z,4.5
2023-07-25T13:08:07.591Z,5.1
2023-07-25T13:09:13.766Z,6.7
2023-07-25T13:10:18.804Z,5.7
2023-07-25T13:11:25.135Z,5.7
2023-07-25T13:12:30.233Z,4.4
2023-07-25T13:13:35.212Z,5.3
2023-07-25T13:14:40.867Z,4.4
2023-07-25T13:15:47.044Z,5.4
2023-07-25T13:16:52.253Z,5.1
2023-07-25T13:17:57.500Z,4.9
2023-07-25T13:19:02.503Z,5.2
2023-07-25T13:20:07.643Z,5.9
2023-07-25T13:21:13.673Z,5.2
2023-07-25T13:22:18.627Z,4.9
2023-07-25T13:23:23.594Z,6.6
2023-07-25T13:24:28.734Z,6.2
2023-07-25T13:25:34.849Z,7.9
2023-07-25T13:26:39.816Z,6.6
2023-07-25T13:27:45.140Z,6.2
2023-07-25T13:28:50.143Z,6.7
2023-07-25T13:29:55.446Z,6.2
2023-07-25T13:31:00.615Z,6.8
2023-07-25T13:32:05.622Z,5.8
2023-07-25T13:33:11.784Z,7
2023-07-25T13:34:16.702Z,6
2023-07-25T13:35:21.694Z,5.8
2023-07-25T13:36:26.846Z,6.2
2023-07-25T13:37:32.090Z,5.7
2023-07-25T13:38:37.077Z,5.4
2023-07-25T13:39:42.193Z,7.1
2023-07-25T13:40:47.372Z,5.1
2023-07-25T13:41:52.349Z,5.5
2023-07-25T13:42:57.316Z,5.9
2023-07-25T13:44:09.013Z,5.4
2023-07-25T13:45:22.484Z,5.5
2023-07-25T13:46:28.107Z,4.7
2023-07-25T13:47:33.056Z,6.1
2023-07-25T13:48:37.983Z,5.2
2023-07-25T13:49:43.041Z,5.5
2023-07-25T13:50:53.481Z,4.9
2023-07-25T13:51:53.174Z,5.9
2023-07-25T13:52:58.329Z,5.8
2023-07-25T13:54:03.338Z,5.3
2023-07-25T13:55:08.458Z,5.2
2023-07-25T13:56:14.157Z,5.1
2023-07-25T13:57:19.692Z,5.2
2023-07-25T13:59:59.906Z,5.4
2023-07-25T14:01:04.931Z,5.1
2023-07-25T14:02:09.963Z,5.2
2023-07-25T14:03:15.083Z,4.8
2023-07-25T14:04:19.866Z,5.6
2023-07-25T14:05:25.003Z,6.2
2023-07-25T14:06:31.064Z,4.9
2023-07-25T14:07:36.106Z,4.5
2023-07-25T14:08:41.135Z,4.4
2023-07-25T14:09:57.375Z,4.8
2023-07-25T14:11:03.099Z,4.2
2023-07-25T14:12:08.547Z,4.6
2023-07-25T14:13:13.534Z,5.4
2023-07-25T14:14:18.521Z,5.2
2023-07-25T14:15:23.547Z,5.1
2023-07-25T14:16:28.480Z,5.3
2023-07-25T14:17:34.486Z,4.6
2023-07-25T14:18:39.635Z,5.5
2023-07-25T14:19:46.968Z,4.4
2023-07-25T14:20:52.914Z,5
2023-07-25T14:21:57.207Z,4.9
2023-07-25T14:23:02.236Z,5.5
2023-07-25T14:24:07.369Z,4.4
2023-07-25T14:25:12.538Z,4.7
2023-07-25T14:26:17.487Z,3.9
2023-07-25T14:27:22.929Z,5.2
2023-07-25T14:28:28.043Z,4.5
2023-07-25T14:29:32.992Z,5.2
2023-07-25T14:30:39.959Z,5.5
2023-07-25T14:31:45.036Z,5.2
2023-07-25T14:32:50.113Z,5.3
2023-07-25T14:33:56.148Z,4.2
2023-07-25T14:35:05.353Z,6.1
2023-07-25T14:36:10.528Z,5.6
2023-07-25T14:37:15.615Z,7.1
2023-07-25T14:38:22.223Z,6.9
2023-07-25T14:39:27.204Z,5
2023-07-25T14:40:33.308Z,4.8
2023-07-25T14:41:39.416Z,4.5
2023-07-25T14:42:44.388Z,4.4
2023-07-25T14:43:51.999Z,4.4
2023-07-25T14:44:54.656Z,4.6
2023-07-25T14:45:59.613Z,4
2023-07-25T14:47:04.902Z,4.5
2023-07-25T14:48:09.924Z,3.7
2023-07-25T14:49:14.903Z,4.2
2023-07-25T14:50:20.590Z,3.7
2023-07-25T14:51:25.605Z,4.9
2023-07-25T14:52:30.616Z,4.7
2023-07-25T14:53:35.687Z,3.6
2023-07-25T14:54:40.943Z,4.3
2023-07-25T14:55:45.958Z,4.9
2023-07-25T14:56:50.998Z,5.3
2023-07-25T14:57:56.188Z,4.9
2023-07-25T14:59:01.279Z,5.9
2023-07-25T15:00:06.363Z,6.2
2023-07-25T15:01:12.774Z,5.9